Time;durP1;ratioP1;P1;durP2;ratioP2;P2;SDS_P1;SDS_P2;PMS_P1;PMS_P2;Temp;Humidity;BMP_temperature;BMP_pressure;BME280_temperature;BME280_humidity;BME280_pressure;Samples;Min_cycle;Max_cycle;Signal;HPM_P1;HPM_P2
2024/02/22 00:02:13;;;;;;;1.13;0.73;;;7.90;99.90;;;;;;5048475;28;20376;-48
2024/02/22 00:04:39;;;;;;;1.42;0.82;;;7.90;99.90;;;;;;5048460;28;20695;-47
2024/02/22 00:07:05;;;;;;;1.60;0.70;;;7.90;99.90;;;;;;5048424;28;20025;-47
2024/02/22 00:09:31;;;;;;;1.20;0.68;;;7.90;99.90;;;;;;5048343;28;20099;-47
2024/02/22 00:11:56;;;;;;;1.85;0.65;;;7.90;99.90;;;;;;5048724;28;20036;-47
2024/02/22 00:14:22;;;;;;;1.02;0.50;;;7.90;99.90;;;;;;5049976;28;20029;-50
2024/02/22 00:16:48;;;;;;;3.03;0.80;;;7.80;99.90;;;;;;5049918;28;20032;-48
2024/02/22 00:19:14;;;;;;;1.17;0.60;;;7.90;99.90;;;;;;5046146;28;20055;-48
2024/02/22 00:21:40;;;;;;;1.45;0.65;;;7.90;99.90;;;;;;5041392;28;20061;-47
2024/02/22 00:24:05;;;;;;;0.98;0.45;;;7.90;99.90;;;;;;5043148;28;20131;-46
2024/02/22 00:26:31;;;;;;;4.22;0.85;;;7.90;99.90;;;;;;5048734;28;20044;-50
2024/02/22 00:28:56;;;;;;;1.23;0.63;;;7.90;99.90;;;;;;5044964;28;20129;-48
2024/02/22 00:31:22;;;;;;;1.33;0.50;;;7.90;99.90;;;;;;5049665;28;20075;-48
2024/02/22 00:33:48;;;;;;;1.13;0.40;;;7.90;99.90;;;;;;5045522;28;20036;-49
2024/02/22 00:36:13;;;;;;;1.23;0.65;;;7.90;99.90;;;;;;5015888;28;20033;-49
2024/02/22 00:38:39;;;;;;;1.08;0.47;;;7.90;99.90;;;;;;5021024;28;20113;-47
2024/02/22 00:41:05;;;;;;;2.13;0.88;;;8.00;99.90;;;;;;5030911;28;20029;-49
2024/02/22 00:43:30;;;;;;;0.70;0.50;;;8.00;99.90;;;;;;5031414;28;20459;-47
2024/02/22 00:45:56;;;;;;;1.17;0.40;;;8.00;99.90;;;;;;5036477;28;20035;-49
2024/02/22 00:48:21;;;;;;;0.80;0.50;;;8.00;99.90;;;;;;5031812;28;20075;-49
2024/02/22 00:50:48;;;;;;;0.80;0.60;;;8.00;99.90;;;;;;5027968;28;20084;-51
2024/02/22 00:53:14;;;;;;;1.27;0.50;;;8.00;99.90;;;;;;5033055;28;20045;-47
2024/02/22 00:55:40;;;;;;;0.63;0.47;;;8.00;99.90;;;;;;5030657;28;20050;-49
2024/02/22 00:58:06;;;;;;;1.95;0.50;;;8.00;99.90;;;;;;5031485;28;20076;-47
2024/02/22 01:00:31;;;;;;;0.65;0.40;;;8.10;99.90;;;;;;5031028;28;20036;-48
2024/02/22 01:02:57;;;;;;;0.63;0.50;;;8.10;99.90;;;;;;5031012;28;20072;-47
2024/02/22 01:05:22;;;;;;;0.77;0.50;;;8.10;99.90;;;;;;5029870;28;20475;-49
2024/02/22 01:07:48;;;;;;;1.20;0.70;;;8.10;99.90;;;;;;5013911;28;21008;-48
2024/02/22 01:10:13;;;;;;;0.60;0.50;;;8.10;99.90;;;;;;5049390;28;20517;-47
2024/02/22 01:12:39;;;;;;;0.65;0.50;;;8.10;99.90;;;;;;5051720;28;20483;-52
2024/02/22 01:15:06;;;;;;;0.57;0.40;;;8.10;99.90;;;;;;5042437;28;20144;-48
2024/02/22 01:17:32;;;;;;;3.85;0.57;;;8.10;99.90;;;;;;5038619;28;20028;-47
2024/02/22 01:19:57;;;;;;;0.40;0.40;;;8.10;99.90;;;;;;5050195;28;20029;-47
2024/02/22 01:22:23;;;;;;;1.10;0.60;;;8.10;99.90;;;;;;5033919;28;20020;-47
2024/02/22 01:24:48;;;;;;;1.10;0.40;;;8.10;99.90;;;;;;5058927;28;20039;-52
2024/02/22 01:27:14;;;;;;;1.10;0.20;;;8.10;99.90;;;;;;5051766;28;20112;-48
2024/02/22 01:29:44;;;;;;;0.90;0.38;;;8.10;99.90;;;;;;5043029;28;20507;-54
2024/02/22 01:32:10;;;;;;;1.40;0.40;;;8.10;99.90;;;;;;5042452;28;20790;-51
2024/02/22 01:34:35;;;;;;;1.13;0.50;;;8.10;99.90;;;;;;5050542;28;20016;-47
2024/02/22 01:37:01;;;;;;;0.80;0.50;;;8.10;99.90;;;;;;5051461;28;20029;-48
2024/02/22 01:39:26;;;;;;;0.50;0.35;;;8.10;99.90;;;;;;5050092;28;20064;-51
2024/02/22 01:41:52;;;;;;;0.40;0.32;;;8.20;99.90;;;;;;5050943;28;20057;-50
2024/02/22 01:44:18;;;;;;;0.25;0.25;;;8.20;99.90;;;;;;5051351;28;20110;-47
2024/02/22 01:46:44;;;;;;;0.50;0.30;;;8.20;99.90;;;;;;5045660;28;20041;-47
2024/02/22 01:49:09;;;;;;;3.05;0.63;;;8.20;99.90;;;;;;5049833;28;21614;-46
2024/02/22 01:51:36;;;;;;;0.95;0.47;;;8.20;99.90;;;;;;5051284;28;21060;-48
2024/02/22 01:54:02;;;;;;;0.45;0.40;;;8.20;99.90;;;;;;5051266;28;20033;-47
2024/02/22 01:56:29;;;;;;;1.25;0.50;;;8.20;99.90;;;;;;5050845;28;20033;-47
2024/02/22 01:58:55;;;;;;;1.83;0.40;;;8.20;99.90;;;;;;5050344;28;20535;-47
2024/02/22 02:01:22;;;;;;;1.00;0.28;;;8.20;99.90;;;;;;5055528;28;20154;-49
2024/02/22 02:03:49;;;;;;;2.15;0.40;;;8.20;99.90;;;;;;5054535;28;20043;-46
2024/02/22 02:06:15;;;;;;;0.73;0.35;;;8.30;99.90;;;;;;5050936;28;20037;-47
2024/02/22 02:08:41;;;;;;;0.32;0.25;;;8.30;99.90;;;;;;5055627;28;20033;-47
2024/02/22 02:11:07;;;;;;;0.40;0.22;;;8.20;99.90;;;;;;5054225;28;20033;-47
2024/02/22 02:13:32;;;;;;;0.57;0.20;;;8.30;99.90;;;;;;5042462;28;20108;-47
2024/02/22 02:15:58;;;;;;;0.90;0.40;;;8.30;99.90;;;;;;5045602;28;20033;-47
2024/02/22 02:18:24;;;;;;;0.40;0.32;;;8.30;99.90;;;;;;5048248;28;20128;-48
2024/02/22 02:21:03;;;;;;;1.67;0.40;;;8.20;99.90;;;;;;5044666;28;20039;-47
2024/02/22 02:23:39;;;;;;;0.35;0.30;;;8.30;99.90;;;;;;5044648;28;20404;-47
2024/02/22 02:26:05;;;;;;;0.50;0.28;;;8.30;99.90;;;;;;5050698;28;20035;-47
2024/02/22 02:28:32;;;;;;;0.63;0.50;;;8.30;99.90;;;;;;5047344;28;20407;-47
2024/02/22 02:30:57;;;;;;;1.40;0.40;;;8.30;99.90;;;;;;5051775;28;20450;-47
2024/02/22 02:33:23;;;;;;;0.38;0.30;;;8.30;99.90;;;;;;5049150;28;20060;-47
2024/02/22 02:35:50;;;;;;;1.48;0.20;;;8.30;99.90;;;;;;5051206;28;20094;-47
2024/02/22 02:38:16;;;;;;;0.20;0.20;;;8.30;99.90;;;;;;5049947;28;20083;-47
2024/02/22 02:40:42;;;;;;;1.00;0.30;;;8.30;99.90;;;;;;5049534;28;20029;-46
2024/02/22 02:43:07;;;;;;;0.43;0.30;;;8.30;99.90;;;;;;5052461;28;20153;-47
2024/02/22 02:45:33;;;;;;;0.60;0.20;;;8.30;99.90;;;;;;5046712;28;20502;-46
2024/02/22 02:47:59;;;;;;;0.63;0.45;;;8.30;99.90;;;;;;5049687;28;20090;-47
2024/02/22 02:50:25;;;;;;;0.32;0.30;;;8.30;99.90;;;;;;5051667;28;20037;-48
2024/02/22 02:52:52;;;;;;;1.02;0.20;;;8.30;99.90;;;;;;5052965;28;20025;-47
2024/02/22 02:55:19;;;;;;;0.32;0.30;;;8.30;99.90;;;;;;5053363;28;20037;-46
2024/02/22 02:57:45;;;;;;;0.88;0.40;;;8.30;99.90;;;;;;5052203;28;20024;-48
2024/02/22 03:00:13;;;;;;;0.40;0.30;;;8.30;99.90;;;;;;5049960;28;20380;-47
2024/02/22 03:02:41;;;;;;;0.55;0.35;;;8.30;99.90;;;;;;5049172;28;20037;-46
2024/02/22 03:05:08;;;;;;;0.68;0.47;;;8.30;99.90;;;;;;5051899;28;20036;-47
2024/02/22 03:07:35;;;;;;;0.30;0.30;;;8.40;99.90;;;;;;5051679;28;20066;-46
2024/02/22 03:10:00;;;;;;;0.20;0.20;;;8.30;99.90;;;;;;5053782;28;20603;-47
2024/02/22 03:12:26;;;;;;;0.55;0.20;;;8.30;99.90;;;;;;5052600;28;20032;-49
2024/02/22 03:14:51;;;;;;;1.02;0.50;;;8.30;99.90;;;;;;5049949;28;20483;-47
2024/02/22 03:17:18;;;;;;;0.50;0.22;;;8.40;99.90;;;;;;5046170;28;20729;-48
2024/02/22 03:19:44;;;;;;;0.30;0.25;;;8.40;99.90;;;;;;5043473;28;20402;-47
2024/02/22 03:22:10;;;;;;;0.57;0.30;;;8.40;99.90;;;;;;5046291;28;20104;-47
2024/02/22 03:24:36;;;;;;;0.35;0.25;;;8.40;99.90;;;;;;5050362;28;20033;-47
2024/02/22 03:27:03;;;;;;;1.00;0.32;;;8.40;99.90;;;;;;5049045;28;20036;-46
2024/02/22 03:29:29;;;;;;;0.30;0.15;;;8.40;99.90;;;;;;5047584;28;20128;-48
2024/02/22 03:31:55;;;;;;;0.30;0.30;;;8.40;99.90;;;;;;5047584;28;20029;-49
2024/02/22 03:34:21;;;;;;;0.52;0.20;;;8.40;99.90;;;;;;5038031;28;20033;-47
2024/02/22 03:36:48;;;;;;;2.60;0.30;;;8.40;99.90;;;;;;5054259;28;20040;-47
2024/02/22 03:39:14;;;;;;;3.05;0.77;;;8.40;99.90;;;;;;5050260;28;20075;-46
2024/02/22 03:41:39;;;;;;;1.00;0.20;;;8.40;99.90;;;;;;5045499;28;20728;-47
2024/02/22 03:44:05;;;;;;;0.10;0.10;;;8.40;99.90;;;;;;5043413;28;20030;-47
2024/02/22 03:46:30;;;;;;;0.10;0.10;;;8.40;99.90;;;;;;5046515;28;20029;-47
2024/02/22 03:48:56;;;;;;;1.63;1.05;;;8.40;99.90;;;;;;5048467;28;20067;-48
2024/02/22 03:51:22;;;;;;;1.85;0.30;;;8.40;99.90;;;;;;5044054;28;20386;-47
2024/02/22 03:53:50;;;;;;;0.20;0.20;;;8.40;99.90;;;;;;5047909;28;20094;-46
2024/02/22 03:56:17;;;;;;;0.25;0.20;;;8.40;99.90;;;;;;5049256;28;20045;-50
2024/02/22 03:58:42;;;;;;;0.30;0.30;;;8.40;99.90;;;;;;5047746;28;20032;-50
2024/02/22 04:01:08;;;;;;;0.40;0.20;;;8.40;99.90;;;;;;5047964;28;20841;-49
2024/02/22 04:03:34;;;;;;;0.30;0.30;;;8.40;99.90;;;;;;5046414;28;20095;-52
2024/02/22 04:06:00;;;;;;;0.75;0.30;;;8.40;99.90;;;;;;5046356;28;20055;-51
2024/02/22 04:08:26;;;;;;;0.10;0.10;;;8.40;99.90;;;;;;5049747;28;20028;-49
2024/02/22 04:10:51;;;;;;;0.30;0.30;;;8.50;99.90;;;;;;5046845;28;20537;-49
2024/02/22 04:13:17;;;;;;;0.35;0.17;;;8.40;99.90;;;;;;5048543;28;20908;-51
2024/02/22 04:15:42;;;;;;;0.30;0.20;;;8.40;99.90;;;;;;5050362;28;20020;-50
2024/02/22 04:18:08;;;;;;;2.85;0.20;;;8.40;99.90;;;;;;5050546;28;20546;-48
2024/02/22 04:20:34;;;;;;;1.98;0.32;;;8.50;99.90;;;;;;5051785;28;20033;-49
2024/02/22 04:22:59;;;;;;;0.47;0.22;;;8.50;99.90;;;;;;5048063;28;20057;-50
2024/02/22 04:25:25;;;;;;;1.15;0.30;;;8.40;99.90;;;;;;5052155;28;20032;-51
2024/02/22 04:27:50;;;;;;;0.20;0.20;;;8.40;99.90;;;;;;5052878;28;20037;-49
2024/02/22 04:30:16;;;;;;;0.93;0.20;;;8.40;99.90;;;;;;5052500;28;20041;-49
2024/02/22 04:32:42;;;;;;;0.40;0.20;;;8.50;99.90;;;;;;5049452;28;20025;-52
2024/02/22 04:35:07;;;;;;;2.05;0.40;;;8.40;99.90;;;;;;5051808;28;20103;-49
2024/02/22 04:37:33;;;;;;;0.50;0.20;;;8.50;99.90;;;;;;5052493;28;20026;-49
2024/02/22 04:39:59;;;;;;;1.85;0.20;;;8.50;99.90;;;;;;5052395;28;20036;-50
2024/02/22 04:42:24;;;;;;;1.30;0.52;;;8.40;99.90;;;;;;5050952;28;20081;-49
2024/02/22 04:44:50;;;;;;;0.55;0.40;;;8.50;99.90;;;;;;5051017;28;20029;-49
2024/02/22 04:47:15;;;;;;;3.65;0.40;;;8.50;99.90;;;;;;5047687;28;20047;-50
2024/02/22 04:49:41;;;;;;;0.38;0.30;;;8.50;99.90;;;;;;5052020;28;20025;-54
2024/02/22 04:52:07;;;;;;;0.73;0.40;;;8.50;99.90;;;;;;5051619;28;20325;-51
2024/02/22 04:54:33;;;;;;;0.32;0.30;;;8.50;99.90;;;;;;5051698;28;20079;-53
2024/02/22 04:56:58;;;;;;;0.47;0.30;;;8.50;99.90;;;;;;5052189;28;20052;-49
2024/02/22 04:59:24;;;;;;;0.52;0.25;;;8.50;99.90;;;;;;5052180;28;20037;-48
2024/02/22 05:01:50;;;;;;;0.35;0.30;;;8.50;99.90;;;;;;5048486;28;20155;-52
2024/02/22 05:04:16;;;;;;;0.50;0.40;;;8.50;99.90;;;;;;5052032;28;20482;-49
2024/02/22 05:06:43;;;;;;;0.70;0.50;;;8.50;99.90;;;;;;5052126;28;20491;-50
2024/02/22 05:09:13;;;;;;;0.57;0.50;;;8.50;99.90;;;;;;5048785;28;20025;-49
2024/02/22 05:11:47;;;;;;;0.68;0.60;;;8.50;99.90;;;;;;5051766;28;20018;-50
2024/02/22 05:14:16;;;;;;;0.40;0.40;;;8.50;99.90;;;;;;5055807;28;20056;-49
2024/02/22 05:16:42;;;;;;;0.82;0.30;;;8.50;99.90;;;;;;5045949;28;20917;-51
2024/02/22 05:19:07;;;;;;;0.30;0.30;;;8.60;99.90;;;;;;5053678;28;20033;-51
2024/02/22 05:21:33;;;;;;;0.47;0.40;;;8.60;99.90;;;;;;5052756;28;20087;-50
2024/02/22 05:24:00;;;;;;;1.92;0.47;;;8.60;99.90;;;;;;5049941;28;20063;-51
2024/02/22 05:26:27;;;;;;;0.98;0.40;;;8.50;99.90;;;;;;5048985;28;20033;-49
2024/02/22 05:28:53;;;;;;;0.52;0.43;;;8.50;99.90;;;;;;5050829;28;20491;-49
2024/02/22 05:31:24;;;;;;;0.60;0.50;;;8.50;99.90;;;;;;5050103;28;20088;-49
2024/02/22 05:33:50;;;;;;;0.30;0.30;;;8.50;99.90;;;;;;5048621;28;20027;-52
2024/02/22 05:36:18;;;;;;;0.30;0.30;;;8.50;99.90;;;;;;5049937;28;20116;-52
2024/02/22 05:38:43;;;;;;;0.57;0.50;;;8.50;99.90;;;;;;5048007;28;20037;-49
2024/02/22 05:41:09;;;;;;;0.40;0.40;;;8.50;99.90;;;;;;5047362;28;20410;-50
2024/02/22 05:43:35;;;;;;;1.05;0.40;;;8.50;99.90;;;;;;5048882;28;20028;-50
2024/02/22 05:46:00;;;;;;;0.63;0.45;;;8.50;99.90;;;;;;5046946;28;20040;-51
2024/02/22 05:48:26;;;;;;;0.73;0.60;;;8.50;99.90;;;;;;5045540;28;20112;-48
2024/02/22 05:50:51;;;;;;;2.40;0.50;;;8.50;99.90;;;;;;5043808;28;20363;-46
2024/02/22 05:53:17;;;;;;;1.10;0.70;;;8.50;99.90;;;;;;5045460;28;20117;-48
2024/02/22 05:55:44;;;;;;;0.40;0.40;;;8.50;99.90;;;;;;5041652;28;20048;-45
2024/02/22 05:58:09;;;;;;;1.35;0.40;;;8.50;99.90;;;;;;5042033;28;20051;-48
2024/02/22 06:00:36;;;;;;;0.40;0.35;;;8.50;99.90;;;;;;5045360;28;20112;-49
2024/02/22 06:03:04;;;;;;;0.57;0.43;;;8.40;99.90;;;;;;5043915;28;20043;-46
2024/02/22 06:05:29;;;;;;;0.30;0.30;;;8.40;99.90;;;;;;5045220;28;20025;-47
2024/02/22 06:07:55;;;;;;;0.93;0.57;;;8.40;99.90;;;;;;5049277;28;20095;-48
2024/02/22 06:10:21;;;;;;;1.05;0.50;;;8.50;99.90;;;;;;5050429;28;20033;-47
2024/02/22 06:12:47;;;;;;;1.60;0.50;;;8.40;99.90;;;;;;5044967;28;20376;-49
2024/02/22 06:15:12;;;;;;;0.63;0.50;;;8.50;99.90;;;;;;5052355;28;20017;-49
2024/02/22 06:17:38;;;;;;;2.70;0.60;;;8.50;99.90;;;;;;5051257;28;20522;-47
2024/02/22 06:20:05;;;;;;;2.63;0.60;;;8.50;99.90;;;;;;5046172;28;20029;-47
2024/02/22 06:22:32;;;;;;;0.75;0.70;;;8.50;99.90;;;;;;5043794;28;20108;-48
2024/02/22 06:24:57;;;;;;;0.55;0.35;;;8.50;99.90;;;;;;5049775;28;20293;-49
2024/02/22 06:27:23;;;;;;;0.50;0.40;;;8.50;99.90;;;;;;5045529;28;20471;-48
2024/02/22 06:29:48;;;;;;;3.95;0.52;;;8.50;99.90;;;;;;5050751;28;20047;-47
2024/02/22 06:32:14;;;;;;;1.20;0.60;;;8.50;99.90;;;;;;5052739;28;20033;-49
2024/02/22 06:34:40;;;;;;;0.50;0.40;;;8.50;99.90;;;;;;5050082;28;20390;-49
2024/02/22 06:37:05;;;;;;;1.50;0.40;;;8.50;99.90;;;;;;5052666;28;20035;-49
2024/02/22 06:39:31;;;;;;;3.75;0.55;;;8.60;99.90;;;;;;5048467;28;20028;-49
2024/02/22 06:41:56;;;;;;;0.70;0.50;;;8.60;99.90;;;;;;5050098;28;20033;-47
2024/02/22 06:44:22;;;;;;;0.40;0.40;;;8.50;99.90;;;;;;5030984;28;20048;-47
2024/02/22 06:46:47;;;;;;;0.70;0.63;;;8.60;99.90;;;;;;5043549;28;20071;-48
2024/02/22 06:49:17;;;;;;;0.70;0.40;;;8.60;99.90;;;;;;5043925;28;20045;-49
2024/02/22 06:51:42;;;;;;;0.95;0.30;;;8.60;99.90;;;;;;5041993;28;20025;-50
2024/02/22 06:54:09;;;;;;;0.75;0.50;;;8.60;99.90;;;;;;5040346;28;20103;-47
2024/02/22 06:56:35;;;;;;;0.40;0.30;;;8.60;99.90;;;;;;5038476;28;20117;-48
2024/02/22 06:59:00;;;;;;;1.58;0.52;;;8.60;99.90;;;;;;5038531;28;20762;-48
2024/02/22 07:01:26;;;;;;;0.95;0.50;;;8.60;99.90;;;;;;5037879;28;20040;-49
2024/02/22 07:03:51;;;;;;;0.17;0.17;;;8.60;99.90;;;;;;5044497;28;20182;-49
2024/02/22 07:06:17;;;;;;;0.93;0.40;;;8.60;99.90;;;;;;5046519;28;20038;-47
2024/02/22 07:08:42;;;;;;;0.43;0.40;;;8.60;99.90;;;;;;5046827;28;20108;-50
2024/02/22 07:11:13;;;;;;;1.83;0.40;;;8.70;99.90;;;;;;5037249;28;20021;-49
2024/02/22 07:13:39;;;;;;;0.47;0.30;;;8.70;99.90;;;;;;5036308;28;20021;-47
2024/02/22 07:16:06;;;;;;;0.43;0.30;;;8.70;99.90;;;;;;5045663;28;20396;-49
2024/02/22 07:18:32;;;;;;;0.93;0.30;;;8.80;99.90;;;;;;5043366;28;20424;-49
2024/02/22 07:20:58;;;;;;;1.27;0.35;;;8.80;99.90;;;;;;5024897;28;20128;-48
2024/02/22 07:23:23;;;;;;;0.50;0.30;;;8.80;99.90;;;;;;5047120;28;20556;-49
2024/02/22 07:25:49;;;;;;;1.60;0.60;;;8.80;99.90;;;;;;5052711;28;20028;-50
2024/02/22 07:28:15;;;;;;;0.80;0.70;;;8.90;99.90;;;;;;5044835;28;20254;-50
2024/02/22 07:30:41;;;;;;;1.65;0.90;;;8.90;99.90;;;;;;5041303;28;20051;-49
2024/02/22 07:33:09;;;;;;;1.63;0.82;;;8.90;99.90;;;;;;5040209;28;20101;-49
2024/02/22 07:35:35;;;;;;;1.27;0.60;;;9.00;99.90;;;;;;5036733;28;20037;-50
2024/02/22 07:38:01;;;;;;;0.85;0.80;;;9.00;99.90;;;;;;5041512;28;20037;-48
2024/02/22 07:40:26;;;;;;;0.60;0.60;;;9.00;99.90;;;;;;5040333;28;20033;-49
2024/02/22 07:42:52;;;;;;;0.68;0.40;;;9.00;99.90;;;;;;5041033;28;20044;-49
2024/02/22 07:45:18;;;;;;;0.45;0.40;;;9.10;99.90;;;;;;5038621;28;20079;-50
2024/02/22 07:47:44;;;;;;;0.55;0.32;;;9.10;99.90;;;;;;5044454;28;20037;-49
2024/02/22 07:50:10;;;;;;;0.63;0.30;;;9.10;99.90;;;;;;5027907;28;20028;-49
2024/02/22 07:52:40;;;;;;;2.08;0.43;;;9.10;99.90;;;;;;5046236;28;20013;-49
2024/02/22 07:55:06;;;;;;;0.65;0.40;;;9.20;99.90;;;;;;5041012;28;20048;-50
2024/02/22 07:57:32;;;;;;;0.63;0.50;;;9.20;99.90;;;;;;5046833;28;20087;-50
2024/02/22 07:59:58;;;;;;;1.00;0.40;;;9.20;99.90;;;;;;5051774;28;20037;-49
2024/02/22 08:02:24;;;;;;;0.30;0.30;;;9.20;99.90;;;;;;5043860;28;20034;-50
2024/02/22 08:04:50;;;;;;;5.30;0.47;;;9.20;99.90;;;;;;5035719;28;20033;-50
2024/02/22 08:07:17;;;;;;;1.75;0.50;;;9.20;99.90;;;;;;5026695;28;20057;-48
2024/02/22 08:09:42;;;;;;;0.30;0.20;;;9.20;99.90;;;;;;5043425;28;20037;-49
2024/02/22 08:12:09;;;;;;;0.73;0.40;;;9.20;99.90;;;;;;5042033;28;21832;-48
2024/02/22 08:14:35;;;;;;;0.80;0.30;;;9.20;99.90;;;;;;5029596;28;20079;-48
2024/02/22 08:17:00;;;;;;;2.28;1.05;;;9.30;99.90;;;;;;5045951;28;20028;-48
2024/02/22 08:19:26;;;;;;;0.85;0.50;;;9.40;99.90;;;;;;5025280;28;20042;-48
2024/02/22 08:21:51;;;;;;;0.57;0.30;;;9.40;99.90;;;;;;5023787;28;21171;-48
2024/02/22 08:24:17;;;;;;;0.75;0.50;;;9.50;99.90;;;;;;5044247;28;20051;-47
2024/02/22 08:26:43;;;;;;;0.20;0.20;;;9.60;99.90;;;;;;5041253;28;20415;-49
2024/02/22 08:29:09;;;;;;;0.30;0.30;;;9.70;99.90;;;;;;5040701;28;20043;-49
2024/02/22 08:31:35;;;;;;;0.55;0.47;;;9.70;99.90;;;;;;5042110;28;20029;-48
2024/02/22 08:34:00;;;;;;;1.15;0.57;;;9.70;99.90;;;;;;5042056;28;20025;-49
2024/02/22 08:36:26;;;;;;;0.70;0.52;;;9.70;99.90;;;;;;5044458;28;20048;-50
2024/02/22 08:38:51;;;;;;;1.08;0.50;;;9.70;99.90;;;;;;5044401;28;20123;-50
2024/02/22 08:41:17;;;;;;;0.80;0.40;;;9.80;99.90;;;;;;5044637;28;20534;-51
2024/02/22 08:43:43;;;;;;;1.00;0.40;;;9.90;99.90;;;;;;5042978;28;20399;-47
2024/02/22 08:46:11;;;;;;;2.30;0.50;;;9.90;99.90;;;;;;5044202;28;20079;-50
2024/02/22 08:48:36;;;;;;;2.17;0.30;;;9.90;99.90;;;;;;5033528;28;20045;-49
2024/02/22 08:51:02;;;;;;;1.83;0.63;;;9.90;99.90;;;;;;5041348;28;20045;-49
2024/02/22 08:53:28;;;;;;;0.45;0.22;;;10.00;99.90;;;;;;5042561;28;20033;-47
2024/02/22 08:55:53;;;;;;;0.43;0.30;;;9.90;99.90;;;;;;5044440;28;20041;-47
2024/02/22 08:58:19;;;;;;;1.10;0.40;;;9.90;99.90;;;;;;5042635;28;20025;-49
2024/02/22 09:00:44;;;;;;;2.65;0.45;;;9.90;99.90;;;;;;5042580;28;20029;-48
2024/02/22 09:03:10;;;;;;;2.03;0.52;;;9.90;99.90;;;;;;5046663;28;20021;-50
2024/02/22 09:05:36;;;;;;;2.42;1.08;;;9.90;99.90;;;;;;5045817;28;20040;-48
2024/02/22 09:08:02;;;;;;;1.85;0.95;;;10.00;99.90;;;;;;5046686;28;20116;-49
2024/02/22 09:10:28;;;;;;;0.43;0.43;;;10.00;99.90;;;;;;5047096;28;20041;-48
2024/02/22 09:12:54;;;;;;;2.15;0.70;;;10.00;99.90;;;;;;5048371;28;20024;-49
2024/02/22 09:15:20;;;;;;;0.65;0.50;;;10.10;99.90;;;;;;5047025;28;20048;-49
2024/02/22 09:17:45;;;;;;;1.45;0.77;;;10.30;99.90;;;;;;5045409;28;20525;-49
2024/02/22 09:20:12;;;;;;;1.88;1.48;;;10.20;99.90;;;;;;5044942;28;20045;-50
2024/02/22 09:22:41;;;;;;;1.42;0.60;;;10.20;99.90;;;;;;5027343;28;20052;-47
2024/02/22 09:25:07;;;;;;;0.55;0.25;;;10.20;99.90;;;;;;5045410;28;20163;-49
2024/02/22 09:27:33;;;;;;;1.25;0.77;;;10.30;99.90;;;;;;5045805;28;20040;-48
2024/02/22 09:30:01;;;;;;;2.97;1.40;;;10.40;99.90;;;;;;5045288;28;20025;-50
2024/02/22 09:32:27;;;;;;;2.58;0.80;;;10.40;99.90;;;;;;5033542;28;20704;-49
2024/02/22 09:34:53;;;;;;;1.13;0.80;;;10.60;99.90;;;;;;5047811;28;20064;-49
2024/02/22 09:37:19;;;;;;;1.05;0.50;;;10.70;99.90;;;;;;5046854;28;20033;-49
2024/02/22 09:39:46;;;;;;;2.55;1.30;;;10.70;99.90;;;;;;5045522;28;20029;-48
2024/02/22 09:42:13;;;;;;;2.42;1.42;;;10.70;99.90;;;;;;5037548;28;20029;-49
2024/02/22 09:44:39;;;;;;;12.82;4.30;;;10.70;99.90;;;;;;5045693;28;20076;-49
2024/02/22 09:47:04;;;;;;;6.18;2.10;;;10.70;99.90;;;;;;5044891;28;20499;-49
2024/02/22 09:49:31;;;;;;;6.15;3.42;;;10.80;99.90;;;;;;5046140;28;20096;-49
2024/02/22 09:51:56;;;;;;;2.60;1.10;;;10.80;99.90;;;;;;5042780;28;20068;-50
2024/02/22 09:54:22;;;;;;;3.88;2.22;;;10.70;99.90;;;;;;5044160;28;21063;-46
2024/02/22 09:56:50;;;;;;;5.43;3.00;;;10.80;99.90;;;;;;5046629;28;20563;-47
2024/02/22 09:59:16;;;;;;;4.18;2.70;;;10.90;99.90;;;;;;5046026;28;20071;-50
2024/02/22 10:01:45;;;;;;;1.40;1.05;;;11.10;99.90;;;;;;5046608;28;20036;-49
2024/02/22 10:04:23;;;;;;;2.05;0.98;;;11.20;99.90;;;;;;5028765;28;20032;-47
2024/02/22 10:06:49;;;;;;;1.17;0.90;;;11.30;99.90;;;;;;5048059;28;20499;-49
2024/02/22 10:09:15;;;;;;;2.20;1.20;;;11.30;99.90;;;;;;5047785;28;20032;-49
2024/02/22 10:11:45;;;;;;;1.98;1.23;;;11.20;99.90;;;;;;5046925;28;20036;-50
2024/02/22 10:14:14;;;;;;;6.68;3.40;;;11.30;99.90;;;;;;5046687;28;20029;-51
2024/02/22 10:16:45;;;;;;;6.47;2.85;;;11.60;99.90;;;;;;5046489;28;20048;-47
2024/02/22 10:19:14;;;;;;;6.68;3.45;;;11.80;99.90;;;;;;5046932;28;20657;-50
2024/02/22 10:21:41;;;;;;;1.15;1.00;;;12.10;99.90;;;;;;5029854;28;20479;-48
2024/02/22 10:24:08;;;;;;;7.43;3.53;;;12.20;99.90;;;;;;5046809;28;20487;-50
2024/02/22 10:26:34;;;;;;;79.38;29.17;;;12.40;99.90;;;;;;5046249;28;20047;-47
2024/02/22 10:29:09;;;;;;;32.63;14.43;;;12.60;99.90;;;;;;5046380;28;20041;-49
2024/02/22 10:31:45;;;;;;;13.60;5.13;;;12.70;99.90;;;;;;5044185;28;20486;-49
2024/02/22 10:34:12;;;;;;;6.25;3.10;;;12.80;99.90;;;;;;5046538;28;20467;-50
2024/02/22 10:36:40;;;;;;;4.25;2.90;;;12.90;99.90;;;;;;5045277;28;20036;-47
2024/02/22 10:39:08;;;;;;;2.70;1.42;;;13.00;99.90;;;;;;5045947;28;20040;-50
2024/02/22 10:41:35;;;;;;;8.13;3.85;;;12.90;99.90;;;;;;5040904;28;20127;-50
2024/02/22 10:44:02;;;;;;;18.40;7.25;;;13.00;99.90;;;;;;5045115;28;20065;-50
2024/02/22 10:46:33;;;;;;;11.75;4.93;;;12.90;99.90;;;;;;5042201;28;20037;-50
2024/02/22 10:49:00;;;;;;;7.18;2.47;;;12.80;99.90;;;;;;5045421;28;20068;-48
2024/02/22 10:51:28;;;;;;;6.25;1.92;;;12.90;99.90;;;;;;5042883;28;20032;-49
2024/02/22 10:53:56;;;;;;;4.60;1.95;;;13.00;99.90;;;;;;5045508;28;20021;-50
2024/02/22 10:56:25;;;;;;;1.65;1.27;;;13.00;99.90;;;;;;5041612;28;20094;-49
2024/02/22 10:59:04;;;;;;;0.60;0.60;;;12.90;99.90;;;;;;5040913;28;20139;-50
2024/02/22 11:01:32;;;;;;;0.65;0.60;;;13.00;99.90;;;;;;5044253;28;20491;-49
2024/02/22 11:03:58;;;;;;;2.67;1.05;;;12.90;99.90;;;;;;5046260;28;20036;-48
2024/02/22 11:06:24;;;;;;;1.67;1.30;;;13.00;99.90;;;;;;5044063;28;20395;-49
2024/02/22 11:09:00;;;;;;;2.00;1.42;;;13.00;99.90;;;;;;5046309;28;20024;-50
2024/02/22 11:11:30;;;;;;;4.65;2.17;;;13.00;99.90;;;;;;5035116;28;20052;-48
2024/02/22 11:14:01;;;;;;;2.22;1.15;;;13.00;99.90;;;;;;5045487;28;20052;-47
2024/02/22 11:16:40;;;;;;;1.77;1.00;;;13.10;99.90;;;;;;5045772;28;20090;-47
2024/02/22 11:19:12;;;;;;;4.95;2.95;;;13.10;99.90;;;;;;5031293;28;20037;-46
2024/02/22 11:21:41;;;;;;;12.38;6.90;;;13.40;99.90;;;;;;5026668;28;20049;-49
2024/02/22 11:24:11;;;;;;;4.60;2.90;;;13.60;99.90;;;;;;5040410;28;20025;-49
2024/02/22 11:26:37;;;;;;;5.30;3.10;;;13.60;99.90;;;;;;5036504;28;20033;-49
2024/02/22 11:29:03;;;;;;;8.55;3.65;;;13.80;99.90;;;;;;5040181;28;20638;-48
2024/02/22 11:31:29;;;;;;;11.77;4.00;;;13.90;99.90;;;;;;5041111;28;20104;-47
2024/02/22 11:33:59;;;;;;;4.82;2.28;;;14.10;99.90;;;;;;5044360;28;20112;-49
2024/02/22 11:36:26;;;;;;;6.47;3.00;;;14.10;99.90;;;;;;5043737;28;20025;-47
2024/02/22 11:39:04;;;;;;;3.38;1.80;;;14.10;99.90;;;;;;5044321;28;20041;-49
2024/02/22 11:41:30;;;;;;;3.85;2.20;;;14.10;99.90;;;;;;5044749;28;20043;-49
2024/02/22 11:44:03;;;;;;;18.42;7.07;;;14.20;99.90;;;;;;5044648;28;20020;-49
2024/02/22 11:46:36;;;;;;;;;;;14.30;99.90;;;;;;5059438;22;20041;-47
2024/02/22 11:49:04;;;;;;;7.78;3.08;;;14.30;99.90;;;;;;5060383;28;19978;-46
2024/02/22 11:51:30;;;;;;;14.27;5.75;;;14.30;99.90;;;;;;5057004;28;20140;-47
2024/02/22 11:53:58;;;;;;;5.72;2.25;;;14.30;99.90;;;;;;5060547;28;20099;-49
2024/02/22 11:56:27;;;;;;;5.05;1.98;;;14.30;99.90;;;;;;5059677;28;20036;-46
2024/02/22 11:58:55;;;;;;;1.63;1.02;;;14.20;99.90;;;;;;5058165;28;20486;-45
2024/02/22 12:01:21;;;;;;;4.05;1.63;;;14.10;99.90;;;;;;5058448;28;20663;-46
2024/02/22 12:03:48;;;;;;;3.42;1.35;;;13.90;99.90;;;;;;5059202;28;20119;-47
2024/02/22 12:06:14;;;;;;;15.10;8.32;;;13.70;99.90;;;;;;5059971;28;20037;-47
2024/02/22 12:08:41;;;;;;;6.43;2.50;;;13.60;99.90;;;;;;5059446;28;20025;-47
2024/02/22 12:11:08;;;;;;;4.05;1.80;;;13.50;99.90;;;;;;5058986;28;20021;-46
2024/02/22 12:13:37;;;;;;;5.93;2.42;;;13.50;99.90;;;;;;5057073;28;20021;-47
2024/02/22 12:16:06;;;;;;;1.65;1.20;;;13.40;99.90;;;;;;5049138;28;20029;-46
2024/02/22 12:18:33;;;;;;;1.55;0.90;;;13.30;99.90;;;;;;5057859;28;20085;-47
2024/02/22 12:20:59;;;;;;;1.10;0.93;;;13.10;99.90;;;;;;5059439;28;20119;-46
2024/02/22 12:23:28;;;;;;;1.33;0.80;;;13.10;99.90;;;;;;5031303;28;20048;-46
2024/02/22 12:25:55;;;;;;;0.70;0.60;;;13.10;99.90;;;;;;5057241;28;20016;-47
2024/02/22 12:28:21;;;;;;;0.85;0.70;;;13.20;99.90;;;;;;5057569;28;20143;-47
2024/02/22 12:30:46;;;;;;;1.65;1.08;;;13.20;99.90;;;;;;5058558;28;20704;-48
2024/02/22 12:33:25;;;;;;;0.85;0.75;;;13.30;99.90;;;;;;5058746;28;20127;-46
2024/02/22 12:35:51;;;;;;;1.77;1.00;;;13.40;99.90;;;;;;5060370;28;20037;-46
2024/02/22 12:38:16;;;;;;;2.13;0.90;;;13.40;99.90;;;;;;5061268;28;20513;-47
2024/02/22 12:40:44;;;;;;;0.50;0.50;;;13.30;99.90;;;;;;5059174;28;20059;-46
2024/02/22 12:43:13;;;;;;;0.55;0.55;;;13.30;99.90;;;;;;5060954;28;20025;-46
2024/02/22 12:45:39;;;;;;;1.67;0.60;;;13.30;99.90;;;;;;5061096;28;20025;-46
2024/02/22 12:48:05;;;;;;;2.28;1.05;;;13.20;99.90;;;;;;5063862;28;20027;-46
2024/02/22 12:50:33;;;;;;;1.08;0.80;;;13.20;99.90;;;;;;5062130;28;20111;-47